Time;durP1;ratioP1;P1;durP2;ratioP2;P2;SDS_P1;SDS_P2;PMS_P1;PMS_P2;Temp;Humidity;BMP_temperature;BMP_pressure;BME280_temperature;BME280_humidity;BME280_pressure;Samples;Min_cycle;Max_cycle;Signal;HPM_P1;HPM_P2
2021/11/11 00:02:08;;;;;;;8.18;4.82;;;2.60;65.90;;;;;;4961317;28;20027;-94
2021/11/11 00:04:34;;;;;;;8.98;4.20;;;2.60;65.90;;;;;;4978327;28;20057;-93
2021/11/11 00:07:02;;;;;;;11.30;4.90;;;2.60;66.10;;;;;;4962899;28;20026;-93
2021/11/11 00:09:28;;;;;;;8.75;4.05;;;2.50;66.00;;;;;;4961454;28;20026;-94
2021/11/11 00:11:55;;;;;;;9.70;3.60;;;2.50;66.10;;;;;;4961767;28;20045;-93
2021/11/11 00:14:21;;;;;;;6.45;4.25;;;2.50;66.20;;;;;;4978469;28;20031;-93
2021/11/11 00:16:47;;;;;;;9.18;3.55;;;2.50;66.20;;;;;;4960674;28;20034;-93
2021/11/11 00:19:13;;;;;;;6.32;3.15;;;2.40;66.30;;;;;;4961090;28;20092;-93
2021/11/11 00:21:39;;;;;;;9.60;4.47;;;2.40;66.40;;;;;;4961510;28;20035;-93
2021/11/11 00:24:07;;;;;;;7.28;3.70;;;2.40;66.50;;;;;;4961495;28;20027;-94
2021/11/11 00:26:32;;;;;;;8.13;3.30;;;2.40;66.60;;;;;;4961797;28;20039;-94
2021/11/11 00:28:58;;;;;;;4.45;2.63;;;2.30;66.70;;;;;;4961621;28;20096;-94
2021/11/11 00:31:25;;;;;;;5.00;2.67;;;2.30;66.80;;;;;;4961469;28;20029;-93
2021/11/11 00:33:51;;;;;;;4.15;2.72;;;2.20;67.00;;;;;;4978462;28;20042;-94
2021/11/11 00:36:18;;;;;;;6.20;3.13;;;2.20;67.10;;;;;;4961149;28;20125;-93
2021/11/11 00:38:44;;;;;;;6.07;3.03;;;2.20;67.20;;;;;;4961670;28;20030;-93
2021/11/11 00:41:10;;;;;;;6.05;3.63;;;2.20;67.30;;;;;;4961336;28;20090;-93
2021/11/11 00:43:36;;;;;;;7.25;2.75;;;2.20;67.40;;;;;;4960413;28;20093;-94
2021/11/11 00:46:02;;;;;;;5.35;3.05;;;2.10;67.40;;;;;;4960604;28;20035;-93
2021/11/11 00:48:28;;;;;;;3.70;2.60;;;2.10;67.60;;;;;;4960630;28;20355;-93
2021/11/11 00:50:54;;;;;;;4.82;2.95;;;2.10;67.70;;;;;;4978091;28;20023;-93
2021/11/11 00:53:20;;;;;;;3.95;2.28;;;2.10;67.80;;;;;;4960498;28;20030;-93
2021/11/11 00:55:46;;;;;;;4.55;2.78;;;2.10;67.90;;;;;;4961013;28;20489;-94
2021/11/11 00:58:12;;;;;;;6.13;3.17;;;2.00;68.00;;;;;;4977352;28;20027;-93
2021/11/11 01:00:38;;;;;;;6.20;3.33;;;2.00;68.10;;;;;;4977467;28;20513;-93
2021/11/11 01:03:05;;;;;;;6.00;2.83;;;2.00;68.20;;;;;;4962436;28;20078;-94
2021/11/11 01:05:33;;;;;;;3.60;2.17;;;2.00;68.30;;;;;;4975770;28;20034;-93
2021/11/11 01:07:59;;;;;;;4.72;2.47;;;2.00;68.50;;;;;;4975607;28;20050;-92
2021/11/11 01:10:25;;;;;;;9.27;3.92;;;2.00;68.60;;;;;;4981867;28;20034;-93
2021/11/11 01:12:51;;;;;;;4.10;2.55;;;1.90;68.70;;;;;;4977226;28;20458;-93
2021/11/11 01:15:21;;;;;;;10.02;3.83;;;1.90;68.80;;;;;;4960116;28;20038;-93
2021/11/11 01:17:47;;;;;;;6.60;3.58;;;1.90;69.00;;;;;;4959363;28;20031;-93
2021/11/11 01:20:14;;;;;;;9.02;3.38;;;1.90;69.00;;;;;;4959756;28;20027;-93
2021/11/11 01:22:41;;;;;;;6.97;3.83;;;1.80;69.10;;;;;;4977180;28;20026;-93
2021/11/11 01:25:10;;;;;;;5.80;2.60;;;1.80;69.30;;;;;;4976791;28;20031;-93
2021/11/11 01:27:36;;;;;;;8.65;3.65;;;1.80;69.30;;;;;;4959897;28;20031;-94
2021/11/11 01:30:03;;;;;;;3.63;2.28;;;1.80;69.60;;;;;;4959814;28;20177;-93
2021/11/11 01:32:28;;;;;;;5.57;2.90;;;1.70;69.70;;;;;;4959216;28;20054;-93
2021/11/11 01:34:54;;;;;;;7.25;3.00;;;1.70;69.80;;;;;;4976829;28;20466;-93
2021/11/11 01:37:20;;;;;;;5.35;2.47;;;1.70;69.90;;;;;;4959329;28;20085;-93
2021/11/11 01:39:46;;;;;;;4.55;2.55;;;1.70;70.10;;;;;;4976550;28;20030;-93
2021/11/11 01:42:12;;;;;;;6.93;3.10;;;1.70;70.20;;;;;;4959537;28;20117;-93
2021/11/11 01:44:45;;;;;;;4.82;2.83;;;1.70;70.30;;;;;;4962615;28;20062;-93
2021/11/11 01:47:11;;;;;;;6.22;2.25;;;1.70;70.40;;;;;;4959638;28;20037;-93
2021/11/11 01:49:37;;;;;;;3.65;3.20;;;1.60;70.50;;;;;;4959815;28;20027;-93
2021/11/11 01:52:03;;;;;;;3.92;2.38;;;1.60;70.50;;;;;;4959564;28;20031;-93
2021/11/11 01:54:29;;;;;;;5.35;2.80;;;1.60;70.70;;;;;;4959371;28;20027;-93
2021/11/11 01:56:54;;;;;;;4.85;2.60;;;1.60;70.80;;;;;;4960010;28;20037;-93
2021/11/11 01:59:20;;;;;;;4.57;3.05;;;1.60;71.10;;;;;;4977899;28;20038;-93
2021/11/11 02:01:46;;;;;;;4.97;3.10;;;1.60;71.10;;;;;;4976912;28;20475;-94
2021/11/11 02:04:12;;;;;;;3.97;2.67;;;1.60;71.50;;;;;;4959261;28;20034;-93
2021/11/11 02:06:39;;;;;;;6.38;3.88;;;1.60;71.40;;;;;;4959566;28;20054;-93
2021/11/11 02:09:04;;;;;;;3.75;2.53;;;1.60;71.70;;;;;;4963625;28;20027;-93
2021/11/11 02:11:30;;;;;;;3.83;2.42;;;1.50;71.70;;;;;;4960749;28;20069;-93
2021/11/11 02:13:59;;;;;;;5.97;2.78;;;1.50;72.00;;;;;;4960452;28;20081;-94
2021/11/11 02:16:25;;;;;;;8.32;3.20;;;1.50;72.10;;;;;;4961277;28;20034;-94
2021/11/11 02:18:53;;;;;;;6.30;3.58;;;1.50;72.40;;;;;;4960316;28;20033;-93
2021/11/11 02:21:19;;;;;;;3.03;1.98;;;1.50;72.70;;;;;;4960651;28;20536;-93
2021/11/11 02:23:45;;;;;;;3.95;2.22;;;1.50;72.90;;;;;;4960651;28;20030;-94
2021/11/11 02:26:11;;;;;;;5.55;2.85;;;1.50;72.90;;;;;;4976824;28;20370;-93
2021/11/11 02:28:37;;;;;;;4.38;2.83;;;1.50;73.10;;;;;;4959223;28;20120;-93
2021/11/11 02:31:03;;;;;;;5.38;2.58;;;1.50;73.30;;;;;;4976134;28;20034;-94
2021/11/11 02:33:29;;;;;;;4.28;2.10;;;1.50;73.40;;;;;;4958502;28;20055;-93
2021/11/11 02:35:55;;;;;;;6.80;2.55;;;1.50;73.80;;;;;;4976353;28;20066;-94
2021/11/11 02:38:23;;;;;;;3.42;1.80;;;1.50;73.80;;;;;;4959348;28;20462;-93
2021/11/11 02:40:49;;;;;;;4.65;2.40;;;1.50;74.20;;;;;;4979405;28;20027;-93
2021/11/11 02:43:15;;;;;;;4.55;3.00;;;1.50;74.00;;;;;;4963030;28;20069;-93
2021/11/11 02:45:46;;;;;;;7.93;3.42;;;1.50;74.30;;;;;;4962850;28;20062;-93
2021/11/11 02:48:14;;;;;;;3.92;2.50;;;1.50;74.50;;;;;;4963231;28;20033;-94
2021/11/11 02:50:41;;;;;;;5.50;2.50;;;1.50;74.60;;;;;;4962841;28;20026;-93
2021/11/11 02:53:08;;;;;;;8.88;2.58;;;1.50;74.70;;;;;;4962881;28;20541;-93
2021/11/11 02:55:34;;;;;;;3.03;2.35;;;1.50;74.80;;;;;;4979743;28;20462;-93
2021/11/11 02:58:00;;;;;;;2.78;2.10;;;1.50;75.00;;;;;;4962314;28;20037;-94
2021/11/11 03:00:39;;;;;;;3.20;1.98;;;1.50;75.20;;;;;;4962973;28;20398;-93
2021/11/11 03:03:04;;;;;;;2.97;2.70;;;1.50;75.30;;;;;;4962608;28;20082;-93
2021/11/11 03:05:32;;;;;;;2.22;1.85;;;1.50;75.50;;;;;;4964594;28;20027;-93
2021/11/11 03:07:58;;;;;;;4.00;2.00;;;1.50;75.60;;;;;;4964800;28;20478;-93
2021/11/11 03:10:26;;;;;;;3.22;2.42;;;1.40;75.70;;;;;;4964653;28;20035;-93
2021/11/11 03:12:54;;;;;;;5.10;3.08;;;1.40;75.70;;;;;;4965181;28;20121;-93
2021/11/11 03:15:22;;;;;;;4.75;2.90;;;1.40;76.10;;;;;;4962412;28;20043;-93
2021/11/11 03:17:48;;;;;;;9.35;3.42;;;1.40;76.10;;;;;;4963354;28;20074;-94
2021/11/11 03:20:15;;;;;;;9.18;4.78;;;1.40;76.20;;;;;;4962631;28;20035;-93
2021/11/11 03:22:42;;;;;;;6.95;3.75;;;1.30;76.40;;;;;;4962116;28;20031;-94
2021/11/11 03:25:09;;;;;;;7.47;3.78;;;1.40;76.50;;;;;;4962020;28;20026;-93
2021/11/11 03:27:35;;;;;;;6.90;3.08;;;1.30;76.80;;;;;;4962375;28;20031;-93
2021/11/11 03:30:00;;;;;;;7.22;3.05;;;1.30;76.80;;;;;;4979788;28;20129;-93
2021/11/11 03:32:26;;;;;;;7.03;3.50;;;1.30;76.90;;;;;;4961758;28;20054;-93
2021/11/11 03:34:52;;;;;;;7.65;3.70;;;1.30;77.10;;;;;;4962437;28;20042;-94
2021/11/11 03:37:22;;;;;;;5.95;3.40;;;1.30;77.20;;;;;;4961870;28;20033;-93
2021/11/11 03:39:48;;;;;;;6.47;2.80;;;1.30;77.60;;;;;;4978827;28;20023;-93
2021/11/11 03:42:14;;;;;;;7.50;4.07;;;1.30;77.50;;;;;;4961703;28;20027;-93
2021/11/11 03:44:42;;;;;;;5.50;3.67;;;1.30;77.80;;;;;;4978685;28;20374;-93
2021/11/11 03:47:08;;;;;;;9.32;3.53;;;1.20;77.70;;;;;;4962228;28;20030;-94
2021/11/11 03:49:35;;;;;;;9.68;3.90;;;1.30;77.90;;;;;;4962974;28;20027;-94
2021/11/11 03:52:02;;;;;;;5.97;3.50;;;1.20;78.20;;;;;;4977836;28;20030;-94
2021/11/11 03:54:28;;;;;;;6.72;3.95;;;1.20;78.50;;;;;;4961698;28;20030;-93
2021/11/11 03:56:56;;;;;;;8.80;3.88;;;1.20;78.50;;;;;;4961482;28;20031;-92
2021/11/11 03:59:23;;;;;;;6.32;3.53;;;1.10;78.60;;;;;;4961217;28;20022;-94
2021/11/11 04:01:50;;;;;;;5.95;3.25;;;1.20;78.80;;;;;;4961255;28;20035;-93
2021/11/11 04:04:15;;;;;;;5.22;2.75;;;1.10;78.90;;;;;;4961470;28;20045;-94
2021/11/11 04:06:41;;;;;;;5.65;3.00;;;1.10;79.10;;;;;;4962201;28;20506;-93
2021/11/11 04:09:07;;;;;;;5.55;3.17;;;1.10;79.10;;;;;;4978384;28;20106;-93
2021/11/11 04:11:34;;;;;;;7.50;2.40;;;1.10;79.40;;;;;;4978819;28;20069;-94
2021/11/11 04:14:00;;;;;;;11.48;2.95;;;1.10;79.60;;;;;;4961911;28;20031;-93
2021/11/11 04:16:26;;;;;;;5.10;2.65;;;1.10;79.50;;;;;;4961437;28;20454;-93
2021/11/11 04:18:52;;;;;;;7.22;4.05;;;1.10;79.80;;;;;;4961398;28;20034;-92
2021/11/11 04:21:19;;;;;;;9.98;4.43;;;1.10;79.80;;;;;;4961245;28;20038;-94
2021/11/11 04:23:46;;;;;;;4.97;3.45;;;1.10;80.00;;;;;;4961703;28;20450;-94
2021/11/11 04:29:03;;;;;;;;;;;1.10;80.10;;;;;;4978925;28;20089;-94
2021/11/11 04:32:14;;;;;;;6.60;4.03;;;1.10;80.50;;;;;;4978732;28;19930;-93
2021/11/11 04:34:19;;;;;;;10.18;5.25;;;1.10;80.40;;;;;;4973802;28;20057;-93
2021/11/11 04:52:23;;;;;;;9.40;5.15;;;1.10;81.70;;;;;;4977436;28;20027;-94
2021/11/11 05:03:22;;;;;;;7.25;4.80;;;1.10;82.20;;;;;;4977231;28;20122;-93
2021/11/11 05:06:02;;;;;;;7.90;3.20;;;1.10;82.40;;;;;;4977097;28;20043;-93
2021/11/11 05:08:29;;;;;;;6.63;3.67;;;1.10;82.50;;;;;;4960549;28;20026;-93
2021/11/11 05:10:56;;;;;;;9.80;3.85;;;1.10;82.70;;;;;;4959953;28;20023;-94
2021/11/11 05:13:22;;;;;;;6.50;3.90;;;1.20;82.80;;;;;;4961964;28;20039;-94
2021/11/11 05:15:48;;;;;;;7.97;4.13;;;1.20;83.10;;;;;;4977574;28;20067;-94
2021/11/11 05:18:14;;;;;;;9.73;4.10;;;1.30;83.20;;;;;;4959741;28;20097;-94
2021/11/11 05:20:40;;;;;;;6.95;4.30;;;1.30;83.10;;;;;;4960519;28;20023;-94
2021/11/11 05:23:06;;;;;;;7.43;3.92;;;1.40;82.80;;;;;;4959856;28;20027;-95
2021/11/11 05:25:32;;;;;;;5.82;4.35;;;1.40;82.80;;;;;;4960332;28;20070;-93
2021/11/11 05:27:58;;;;;;;8.98;3.85;;;1.50;82.90;;;;;;4978000;28;20065;-94
2021/11/11 05:30:25;;;;;;;5.25;3.58;;;1.60;82.80;;;;;;4960293;28;20081;-94
2021/11/11 05:32:51;;;;;;;6.93;3.38;;;1.60;82.80;;;;;;4959877;28;20097;-94
2021/11/11 05:35:17;;;;;;;6.28;3.58;;;1.70;82.80;;;;;;4977645;28;20039;-94
2021/11/11 05:37:44;;;;;;;5.35;2.30;;;1.70;82.60;;;;;;4960698;28;20070;-94
2021/11/11 05:40:11;;;;;;;7.85;3.25;;;1.80;82.50;;;;;;4960595;28;20026;-94
2021/11/11 05:42:37;;;;;;;6.32;3.00;;;1.80;82.30;;;;;;4960029;28;20186;-94
2021/11/11 05:45:05;;;;;;;4.90;3.22;;;1.90;82.20;;;;;;4977551;28;20474;-94
2021/11/11 05:47:31;;;;;;;4.90;2.13;;;2.00;82.20;;;;;;4960766;28;20117;-94
2021/11/11 05:49:56;;;;;;;3.47;2.72;;;2.10;82.10;;;;;;4960338;28;20071;-94
2021/11/11 05:52:23;;;;;;;4.47;2.97;;;2.10;82.00;;;;;;4959410;28;20079;-93
2021/11/11 05:54:48;;;;;;;6.35;3.05;;;2.20;81.90;;;;;;4959960;28;20458;-94
2021/11/11 05:57:17;;;;;;;5.22;2.80;;;2.30;81.80;;;;;;4959960;28;20031;-93
2021/11/11 05:59:43;;;;;;;5.18;2.53;;;2.40;81.60;;;;;;4960796;28;20050;-93
2021/11/11 06:02:11;;;;;;;5.53;2.55;;;2.50;81.60;;;;;;4959265;28;20034;-94
2021/11/11 06:04:38;;;;;;;5.47;3.50;;;2.60;81.30;;;;;;4976390;28;20023;-94
2021/11/11 06:07:04;;;;;;;5.95;2.72;;;2.70;80.80;;;;;;4959637;28;20034;-94
2021/11/11 06:09:30;;;;;;;5.80;3.70;;;2.80;80.40;;;;;;4960074;28;20027;-95
2021/11/11 06:11:56;;;;;;;4.50;2.78;;;2.90;80.40;;;;;;4960993;28;20474;-93
2021/11/11 06:17:52;;;;;;;2.92;2.25;;;3.10;79.60;;;;;;4978419;28;20041;-93
2021/11/11 06:20:27;;;;;;;4.82;2.40;;;3.30;79.20;;;;;;4959904;28;20410;-95
2021/11/11 06:22:53;;;;;;;6.07;3.95;;;3.30;79.00;;;;;;4960165;28;20113;-95
2021/11/11 06:25:19;;;;;;;6.43;3.55;;;3.40;78.70;;;;;;4960612;28;20437;-94
2021/11/11 06:27:45;;;;;;;4.18;3.05;;;3.40;78.30;;;;;;4963357;28;20030;-92
2021/11/11 06:30:11;;;;;;;4.88;3.35;;;3.50;78.30;;;;;;4972589;28;20023;-93
2021/11/11 06:32:37;;;;;;;6.10;3.55;;;3.60;78.20;;;;;;4975058;28;20051;-92
2021/11/11 06:35:04;;;;;;;5.57;3.15;;;3.60;78.10;;;;;;4974158;28;20113;-93
2021/11/11 06:37:30;;;;;;;6.05;4.40;;;3.70;78.10;;;;;;4975487;28;20031;-92
2021/11/11 06:39:56;;;;;;;6.38;2.70;;;3.90;77.70;;;;;;4974213;28;20022;-93
2021/11/11 06:42:22;;;;;;;6.63;3.17;;;4.00;77.30;;;;;;4970849;28;20057;-95
2021/11/11 06:44:49;;;;;;;10.80;3.45;;;4.10;76.90;;;;;;4966203;28;20031;-92
2021/11/11 06:47:15;;;;;;;6.35;2.95;;;4.20;76.40;;;;;;4962243;28;20034;-93
2021/11/11 06:49:41;;;;;;;5.95;3.25;;;4.30;75.80;;;;;;4978390;28;20034;-94
2021/11/11 06:52:10;;;;;;;9.65;3.45;;;4.30;75.50;;;;;;4960694;28;20426;-94
2021/11/11 06:54:36;;;;;;;11.00;3.85;;;4.30;75.40;;;;;;4960789;28;20086;-93
2021/11/11 06:57:02;;;;;;;5.20;3.22;;;4.40;75.40;;;;;;4961018;28;20077;-93
2021/11/11 06:59:31;;;;;;;5.97;3.35;;;4.40;74.80;;;;;;4960649;28;20053;-93
2021/11/11 07:01:57;;;;;;;5.55;2.90;;;4.50;74.80;;;;;;4959845;28;20030;-94
2021/11/11 07:04:25;;;;;;;6.38;3.42;;;4.60;74.30;;;;;;4976984;28;20054;-94
2021/11/11 07:06:51;;;;;;;4.13;3.15;;;4.70;74.00;;;;;;4959568;28;20485;-94
2021/11/11 07:09:17;;;;;;;4.13;2.85;;;4.80;73.20;;;;;;4976487;28;20054;-94
2021/11/11 07:11:43;;;;;;;7.82;2.10;;;4.80;72.50;;;;;;4959148;28;20037;-95
2021/11/11 07:14:08;;;;;;;4.90;2.67;;;4.80;72.40;;;;;;4958747;28;20106;-95
2021/11/11 07:16:34;;;;;;;5.18;2.90;;;4.90;71.80;;;;;;4959294;28;20062;-95
2021/11/11 07:19:00;;;;;;;6.97;3.15;;;5.00;71.40;;;;;;4958623;28;20079;-94
2021/11/11 07:21:26;;;;;;;3.83;2.65;;;5.00;71.50;;;;;;4959044;28;20026;-93
2021/11/11 07:23:52;;;;;;;4.43;2.72;;;5.10;70.70;;;;;;4958901;28;20027;-94
2021/11/11 07:26:18;;;;;;;5.05;3.30;;;5.10;70.60;;;;;;4961092;28;20031;-94
2021/11/11 07:32:06;;;;;;;4.75;2.65;;;5.10;68.80;;;;;;4981851;28;20062;-92
2021/11/11 07:38:16;;;;;;;3.40;2.10;;;5.20;69.20;;;;;;4974611;28;20058;-94
2021/11/11 07:40:42;;;;;;;5.95;5.13;;;5.20;68.90;;;;;;4962843;28;20038;-93
2021/11/11 07:43:09;;;;;;;3.47;2.42;;;5.20;68.90;;;;;;4981570;28;20037;-94
2021/11/11 07:45:51;;;;;;;5.20;2.85;;;5.30;68.80;;;;;;4964024;28;20046;-93
2021/11/11 07:51:42;;;;;;;5.88;2.97;;;5.40;68.40;;;;;;4982733;28;20512;-93
2021/11/11 07:54:09;;;;;;;3.55;2.35;;;5.50;67.90;;;;;;4963669;28;20497;-93
2021/11/11 07:56:36;;;;;;;10.27;3.13;;;5.50;67.50;;;;;;4966886;28;20122;-92
2021/11/11 07:59:03;;;;;;;3.28;1.65;;;5.50;67.30;;;;;;4963862;28;20030;-92
2021/11/11 08:01:29;;;;;;;3.85;2.40;;;5.50;67.60;;;;;;4963064;28;20027;-90
2021/11/11 08:03:57;;;;;;;10.02;3.75;;;5.60;67.60;;;;;;4964237;28;20060;-93
2021/11/11 08:06:23;;;;;;;5.47;3.10;;;5.60;67.00;;;;;;4963383;28;20027;-93
2021/11/11 08:09:23;;;;;;;5.78;2.70;;;5.60;66.50;;;;;;4961229;28;20038;-94
2021/11/11 08:11:49;;;;;;;4.28;2.55;;;5.70;66.50;;;;;;4963619;28;20039;-94
2021/11/11 08:14:16;;;;;;;4.43;2.58;;;5.80;66.50;;;;;;4983109;28;20027;-93
2021/11/11 08:16:41;;;;;;;4.90;2.60;;;5.80;66.50;;;;;;4963750;28;20073;-92
2021/11/11 08:19:07;;;;;;;7.28;3.30;;;5.90;66.00;;;;;;4964905;28;20386;-93
2021/11/11 08:21:33;;;;;;;7.45;3.20;;;5.90;66.00;;;;;;4964064;28;20042;-93
2021/11/11 08:24:00;;;;;;;3.35;2.42;;;6.00;66.10;;;;;;4964288;28;20381;-94
2021/11/11 08:26:26;;;;;;;4.35;2.42;;;6.10;65.90;;;;;;4964641;28;20031;-92
2021/11/11 08:28:52;;;;;;;3.35;2.47;;;6.20;65.60;;;;;;4964155;28;20033;-92
2021/11/11 08:31:18;;;;;;;5.82;2.83;;;6.20;65.30;;;;;;4979850;28;20113;-96
2021/11/11 08:33:44;;;;;;;5.43;2.95;;;6.30;65.30;;;;;;4964168;28;20031;-92
2021/11/11 08:39:32;;;;;;;4.78;2.92;;;6.40;65.30;;;;;;4971921;28;20057;-95
2021/11/11 08:42:00;;;;;;;2.72;1.95;;;6.50;64.90;;;;;;4961921;28;20102;-94
2021/11/11 08:44:32;;;;;;;3.63;2.05;;;6.50;64.60;;;;;;4973483;28;20050;-95
2021/11/11 08:47:04;;;;;;;5.60;2.35;;;6.60;64.80;;;;;;4986054;28;20493;-95
2021/11/11 08:49:39;;;;;;;6.53;2.90;;;6.60;64.70;;;;;;4985335;28;20054;-95
2021/11/11 08:52:12;;;;;;;7.28;2.17;;;6.70;64.60;;;;;;4967995;28;20039;-95
2021/11/11 08:54:44;;;;;;;3.78;1.80;;;6.80;64.90;;;;;;4983303;28;20045;-95
2021/11/11 08:57:31;;;;;;;4.13;2.50;;;6.80;64.70;;;;;;4983967;28;20183;-94
2021/11/11 09:00:40;;;;;;;5.40;2.33;;;6.90;64.70;;;;;;4972792;28;20026;-93
2021/11/11 09:07:43;;;;;;;4.10;2.40;;;7.10;64.70;;;;;;4920028;29;20110;-94
2021/11/11 09:24:05;;;;;;;5.80;3.15;;;7.40;64.10;;;;;;4925022;29;20107;-94
2021/11/11 09:26:49;;;;;;;7.25;3.53;;;7.40;64.00;;;;;;4928944;29;20056;-96
2021/11/11 09:29:33;;;;;;;5.53;3.30;;;7.50;64.50;;;;;;4919823;29;20063;-96
2021/11/11 09:35:09;;;;;;;3.67;2.92;;;7.60;64.50;;;;;;4987239;28;20139;-96
2021/11/11 09:37:57;;;;;;;5.80;2.88;;;7.70;64.00;;;;;;4949821;29;20040;-95
2021/11/11 09:43:54;;;;;;;6.32;3.75;;;7.70;63.90;;;;;;4897747;29;20036;-93
2021/11/11 09:46:29;;;;;;;4.38;2.83;;;7.70;63.70;;;;;;4948836;29;20020;-94
2021/11/11 09:49:31;;;;;;;7.03;3.47;;;7.70;64.10;;;;;;4951534;29;20032;-96
2021/11/11 10:02:56;;;;;;;2.90;2.53;;;8.10;63.40;;;;;;4907968;29;20043;-94
2021/11/11 10:37:11;;;;;;;4.22;2.70;;;8.60;61.80;;;;;;4871610;29;20078;-95
2021/11/11 10:47:17;;;;;;;5.80;3.67;;;8.60;61.20;;;;;;4811723;29;20046;-96
2021/11/11 10:50:46;;;;;;;6.05;3.83;;;8.60;61.40;;;;;;4807743;29;20116;-95
2021/11/11 10:53:30;;;;;;;10.43;3.80;;;8.70;62.00;;;;;;4815308;29;20050;-96
2021/11/11 10:56:22;;;;;;;7.55;3.22;;;8.80;61.50;;;;;;4795333;29;20074;-93
2021/11/11 11:27:05;;;;;;;6.10;2.85;;;8.90;59.20;;;;;;4954208;29;20035;-95
2021/11/11 11:30:16;;;;;;;3.78;2.70;;;9.00;59.00;;;;;;4944075;29;20036;-93
2021/11/11 11:32:54;;;;;;;3.55;2.60;;;8.90;59.70;;;;;;4941315;29;20028;-94
2021/11/11 11:35:25;;;;;;;6.00;3.72;;;9.00;60.10;;;;;;4924819;29;20110;-95
2021/11/11 11:38:02;;;;;;;5.72;2.33;;;9.00;60.30;;;;;;4906229;29;20107;-95
2021/11/11 11:40:48;;;;;;;;;;;;;;;;;;;;;
2021/11/11 11:43:35;;;;;;;3.38;2.10;;;9.10;60.60;;;;;;4939745;29;20169;-96
2021/11/11 11:46:17;;;;;;;4.43;3.05;;;9.10;60.70;;;;;;4925896;29;20475;-95
2021/11/11 11:48:47;;;;;;;5.32;2.75;;;9.20;60.70;;;;;;4919662;29;20024;-94
2021/11/11 11:51:43;;;;;;;2.25;1.95;;;9.20;60.70;;;;;;4940245;29;20147;-95
2021/11/11 12:40:05;;;;;;;4.07;2.55;;;9.00;61.90;;;;;;4979641;28;20078;-92
2021/11/11 12:46:03;;;;;;;4.25;3.03;;;8.90;61.60;;;;;;4982055;28;20045;-92
2021/11/11 12:48:50;;;;;;;;;;;;;;;;;;;;;
2021/11/11 12:51:30;;;;;;;4.15;3.00;;;8.90;61.80;;;;;;4942020;29;20204;-93
2021/11/11 12:53:59;;;;;;;4.43;2.80;;;8.90;61.70;;;;;;4947111;28;20054;-92
2021/11/11 12:56:39;;;;;;;4.97;3.42;;;8.90;61.90;;;;;;4962663;28;20050;-91
2021/11/11 12:59:22;;;;;;;6.35;3.45;;;8.90;61.80;;;;;;5030668;28;20097;-93
2021/11/11 13:02:04;;;;;;;9.85;2.95;;;8.90;62.00;;;;;;5003064;28;20025;-92
2021/11/11 13:04:59;;;;;;;9.52;3.22;;;8.90;62.20;;;;;;5002326;28;20026;-92
2021/11/11 13:07:36;;;;;;;7.60;3.67;;;8.90;62.20;;;;;;5001607;28;20481;-94
2021/11/11 13:10:17;;;;;;;5.30;3.38;;;9.00;62.10;;;;;;5001772;28;20033;-94
2021/11/11 13:13:40;;;;;;;;;;;;;;;;;;;;;
2021/11/11 13:16:25;;;;;;;4.88;3.28;;;9.00;62.00;;;;;;5009439;28;20086;-93
2021/11/11 13:18:54;;;;;;;5.57;3.30;;;9.00;62.00;;;;;;4998988;28;20053;-92
2021/11/11 13:21:51;;;;;;;7.07;3.13;;;9.00;62.00;;;;;;4987757;28;20046;-89
2021/11/11 16:02:51;;;;;;;3.83;2.83;;;7.20;72.20;;;;;;5009592;28;20236;-89
2021/11/11 16:25:07;;;;;;;;;;;6.80;73.60;;;;;;4913036;29;20039;-87
2021/11/11 16:27:34;;;;;;;6.65;4.78;;;6.80;73.90;;;;;;4983813;28;19966;-88
2021/11/11 16:30:13;;;;;;;5.80;3.30;;;6.70;73.60;;;;;;4993250;28;20029;-87
2021/11/11 16:32:38;;;;;;;8.40;3.50;;;6.70;73.70;;;;;;4993009;28;20054;-85
2021/11/11 16:35:07;;;;;;;10.00;3.97;;;6.70;73.90;;;;;;4991833;28;20080;-86
2021/11/11 16:37:34;;;;;;;8.82;3.15;;;6.70;74.00;;;;;;4994225;28;20607;-86
2021/11/11 16:40:01;;;;;;;6.25;3.47;;;6.70;74.10;;;;;;4994586;28;20037;-86
2021/11/11 16:42:28;;;;;;;7.50;3.30;;;6.70;74.20;;;;;;4992699;28;20113;-85
2021/11/11 16:44:53;;;;;;;4.93;3.28;;;6.70;74.40;;;;;;4993918;28;20489;-86
2021/11/11 16:47:19;;;;;;;9.07;3.67;;;6.70;74.60;;;;;;4992301;28;20033;-86
2021/11/11 16:49:46;;;;;;;9.00;4.07;;;6.60;74.70;;;;;;4991216;28;20026;-89
2021/11/11 16:52:13;;;;;;;6.60;3.60;;;6.60;74.90;;;;;;4994324;28;20469;-86
2021/11/11 16:54:41;;;;;;;4.57;2.75;;;6.60;75.00;;;;;;4994946;28;20025;-86
2021/11/11 16:57:13;;;;;;;5.88;2.95;;;6.60;75.40;;;;;;4994086;28;20038;-89
2021/11/11 16:59:41;;;;;;;4.88;2.75;;;6.50;75.30;;;;;;5008051;28;20481;-85
2021/11/11 17:02:07;;;;;;;3.30;2.47;;;6.40;75.40;;;;;;4992101;28;20036;-85
2021/11/11 17:04:33;;;;;;;8.88;3.30;;;6.50;75.70;;;;;;4995077;28;20101;-86
2021/11/11 17:06:59;;;;;;;9.98;3.72;;;6.50;75.80;;;;;;4991003;28;20072;-85
2021/11/11 17:09:25;;;;;;;7.28;3.78;;;6.50;75.90;;;;;;5009443;28;20045;-83
2021/11/11 17:11:54;;;;;;;6.30;3.15;;;6.40;76.10;;;;;;4991372;28;20113;-88
2021/11/11 17:14:26;;;;;;;5.45;3.33;;;6.40;76.20;;;;;;4991591;28;20135;-85
2021/11/11 17:16:52;;;;;;;7.50;3.22;;;6.40;76.40;;;;;;4993023;28;20121;-84
2021/11/11 17:19:24;;;;;;;3.72;3.15;;;6.30;76.60;;;;;;4994619;28;20034;-83
2021/11/11 17:21:51;;;;;;;6.47;3.00;;;6.30;76.90;;;;;;4995466;28;20107;-85
2021/11/11 17:24:22;;;;;;;3.63;2.53;;;6.30;77.00;;;;;;4990642;28;20041;-84
2021/11/11 17:29:26;;;;;;;9.77;3.05;;;6.20;77.50;;;;;;5004649;28;20362;-85
2021/11/11 17:31:55;;;;;;;5.93;2.90;;;6.20;77.50;;;;;;4994438;28;20025;-89
2021/11/11 17:34:23;;;;;;;6.60;3.50;;;6.20;77.70;;;;;;4978192;28;20037;-87
2021/11/11 17:36:50;;;;;;;6.25;3.10;;;6.10;78.00;;;;;;4993941;28;20381;-87
2021/11/11 17:39:16;;;;;;;5.28;3.03;;;6.10;78.30;;;;;;4992577;28;20385;-86
2021/11/11 17:41:55;;;;;;;8.57;3.42;;;6.10;78.80;;;;;;4993628;28;20064;-91
2021/11/11 17:44:21;;;;;;;4.80;3.35;;;6.10;79.40;;;;;;4996330;28;20042;-84
2021/11/11 17:46:56;;;;;;;3.42;2.47;;;6.00;79.20;;;;;;4995144;28;20033;-85
2021/11/11 17:49:52;;;;;;;8.85;3.78;;;6.00;79.70;;;;;;4998745;28;20053;-90
2021/11/11 17:52:26;;;;;;;10.30;3.75;;;6.00;79.70;;;;;;4997924;28;20021;-87
2021/11/11 17:54:58;;;;;;;8.07;4.43;;;6.00;79.90;;;;;;4993413;28;20058;-89
2021/11/11 17:58:25;;;;;;;7.30;3.28;;;6.00;80.30;;;;;;5011083;28;20049;-91
2021/11/11 18:00:53;;;;;;;8.80;3.85;;;6.00;80.50;;;;;;5009590;28;20582;-87
2021/11/11 18:03:22;;;;;;;6.90;3.38;;;6.00;80.50;;;;;;4996939;28;20037;-90
2021/11/11 18:06:02;;;;;;;11.18;4.28;;;6.00;80.80;;;;;;5009078;28;20106;-87
2021/11/11 18:08:33;;;;;;;6.38;3.28;;;6.00;81.10;;;;;;4998770;28;20042;-88
2021/11/11 18:11:05;;;;;;;7.97;3.83;;;5.90;81.40;;;;;;4993111;28;20054;-88
2021/11/11 18:13:37;;;;;;;10.32;3.58;;;5.90;81.50;;;;;;4997540;28;20524;-88
2021/11/11 18:16:12;;;;;;;8.77;4.55;;;5.90;81.90;;;;;;4998106;28;20362;-86
2021/11/11 18:18:40;;;;;;;8.57;4.22;;;5.90;82.20;;;;;;4999679;28;20026;-89
2021/11/11 18:21:07;;;;;;;6.60;4.53;;;5.90;82.60;;;;;;4988005;28;20042;-86
2021/11/11 18:23:34;;;;;;;7.82;3.08;;;5.90;82.80;;;;;;4975010;28;20037;-88
2021/11/11 18:26:00;;;;;;;7.65;3.70;;;5.80;83.20;;;;;;4989458;28;20052;-87
2021/11/11 18:28:27;;;;;;;11.68;4.47;;;5.80;83.40;;;;;;4980135;28;20057;-89
2021/11/11 18:31:01;;;;;;;8.55;4.88;;;5.80;84.20;;;;;;4986072;28;20113;-86
2021/11/11 18:33:38;;;;;;;5.63;3.75;;;5.70;85.20;;;;;;4982569;28;20152;-87
2021/11/11 18:36:05;;;;;;;10.13;3.92;;;5.70;85.50;;;;;;4997330;28;20121;-86
2021/11/11 18:38:31;;;;;;;9.55;4.57;;;5.70;86.70;;;;;;4978889;28;20034;-90
2021/11/11 18:41:01;;;;;;;7.47;3.72;;;5.70;86.80;;;;;;4976332;28;20031;-92
2021/11/11 18:43:29;;;;;;;8.45;4.15;;;5.70;87.60;;;;;;4975144;28;20038;-92
2021/11/11 18:46:10;;;;;;;8.65;3.78;;;5.60;88.60;;;;;;4975890;28;20026;-90
2021/11/11 18:48:40;;;;;;;7.82;3.70;;;5.60;88.80;;;;;;4978679;28;20041;-88
2021/11/11 18:51:14;;;;;;;9.82;4.07;;;5.60;90.20;;;;;;4973883;28;20033;-88
2021/11/11 18:53:40;;;;;;;8.63;4.50;;;5.60;90.40;;;;;;4993480;28;20062;-89
2021/11/11 18:56:09;;;;;;;10.13;4.07;;;5.60;90.70;;;;;;4975776;28;20038;-86
2021/11/11 18:58:35;;;;;;;6.13;3.58;;;5.60;91.00;;;;;;4975076;28;20049;-88
2021/11/11 19:01:05;;;;;;;10.93;5.53;;;5.60;91.60;;;;;;4973500;28;20018;-88
2021/11/11 19:03:33;;;;;;;6.68;4.15;;;5.60;92.00;;;;;;4974338;28;20027;-87
2021/11/11 19:06:07;;;;;;;9.80;4.72;;;5.50;92.30;;;;;;4975454;28;20030;-86
2021/11/11 19:08:36;;;;;;;9.63;4.72;;;5.50;92.50;;;;;;4975913;28;20027;-86
2021/11/11 19:11:05;;;;;;;7.55;4.25;;;5.50;92.60;;;;;;4975686;28;20122;-86
2021/11/11 19:13:37;;;;;;;6.90;4.43;;;5.50;92.90;;;;;;4974750;28;20061;-86
2021/11/11 19:16:14;;;;;;;8.57;4.45;;;5.40;92.90;;;;;;4992960;28;20022;-87
2021/11/11 19:18:43;;;;;;;13.00;5.53;;;5.40;93.10;;;;;;4975601;28;20105;-86
2021/11/11 19:21:13;;;;;;;7.22;5.18;;;5.40;93.50;;;;;;5001138;28;20053;-87
2021/11/11 19:23:40;;;;;;;7.78;5.18;;;5.30;93.50;;;;;;5017023;28;20457;-86
2021/11/11 19:26:09;;;;;;;7.20;3.60;;;5.30;94.00;;;;;;5016734;28;20030;-86
2021/11/11 19:28:34;;;;;;;6.68;3.72;;;5.30;93.70;;;;;;4998284;28;20030;-86
2021/11/11 19:31:00;;;;;;;9.40;3.45;;;5.30;93.90;;;;;;5016375;28;20026;-86
2021/11/11 19:33:26;;;;;;;6.93;4.03;;;5.30;94.00;;;;;;4999133;28;20033;-86